Time;durP1;ratioP1;P1;durP2;ratioP2;P2;SDS_P1;SDS_P2;PMS_P1;PMS_P2;Temp;Humidity;BMP_temperature;BMP_pressure;BME280_temperature;BME280_humidity;BME280_pressure;Samples;Min_cycle;Max_cycle;Signal;HPM_P1;HPM_P2
2023/12/27 00:01:31;;;;;;;7.83;6.93;;;19.50;47.60;;;;;;4990355;28;20235;-73
2023/12/27 00:03:56;;;;;;;7.60;6.40;;;19.50;47.60;;;;;;4994203;28;20215;-73
2023/12/27 00:06:22;;;;;;;7.13;5.90;;;19.60;47.70;;;;;;4979312;28;20248;-73
2023/12/27 00:08:48;;;;;;;7.20;6.50;;;19.60;47.70;;;;;;4991154;28;20350;-73
2023/12/27 00:11:17;;;;;;;6.83;6.23;;;19.50;47.50;;;;;;4985140;28;20307;-73
2023/12/27 00:13:43;;;;;;;6.93;6.30;;;19.50;47.60;;;;;;4990314;28;20226;-72
2023/12/27 00:16:09;;;;;;;7.07;6.47;;;19.50;47.60;;;;;;4986728;28;20799;-73
2023/12/27 00:18:35;;;;;;;8.63;7.17;;;19.50;47.60;;;;;;4983811;28;20246;-69
2023/12/27 00:21:00;;;;;;;6.87;6.27;;;19.50;47.60;;;;;;4986006;28;20458;-71
2023/12/27 00:23:27;;;;;;;7.23;6.40;;;19.50;47.60;;;;;;4994757;28;20230;-72
2023/12/27 00:25:53;;;;;;;6.50;5.87;;;19.50;47.60;;;;;;4971868;28;20219;-71
2023/12/27 00:28:19;;;;;;;8.03;6.90;;;19.50;47.50;;;;;;4980618;28;20502;-73
2023/12/27 00:30:48;;;;;;;7.13;6.43;;;19.50;47.60;;;;;;4970334;28;20591;-73
2023/12/27 00:33:17;;;;;;;6.37;5.77;;;19.50;47.60;;;;;;4985284;28;20441;-73
2023/12/27 00:35:43;;;;;;;6.63;5.90;;;19.50;47.60;;;;;;4979797;28;20485;-73
2023/12/27 00:38:08;;;;;;;6.83;6.20;;;19.50;47.60;;;;;;4983525;28;20469;-72
2023/12/27 00:40:34;;;;;;;6.60;6.00;;;19.50;47.50;;;;;;4993613;28;20228;-73
2023/12/27 00:43:00;;;;;;;6.60;5.87;;;19.50;47.60;;;;;;4978442;28;20231;-73
2023/12/27 00:45:25;;;;;;;5.73;5.23;;;19.50;47.50;;;;;;4989759;28;20230;-73
2023/12/27 00:47:52;;;;;;;7.20;6.50;;;19.50;47.50;;;;;;4987373;28;20235;-73
2023/12/27 00:50:18;;;;;;;5.67;5.17;;;19.50;47.50;;;;;;4989700;28;21734;-73
2023/12/27 00:52:44;;;;;;;6.93;6.20;;;19.50;47.50;;;;;;4988383;28;21039;-73
2023/12/27 00:55:09;;;;;;;6.50;5.90;;;19.50;47.60;;;;;;4967749;28;20463;-73
2023/12/27 00:57:35;;;;;;;7.53;5.87;;;19.50;47.60;;;;;;4972184;28;20596;-72
2023/12/27 01:00:00;;;;;;;6.70;5.83;;;19.50;47.50;;;;;;4979222;28;20682;-72
2023/12/27 01:02:26;;;;;;;6.57;5.97;;;19.50;47.60;;;;;;4963464;28;20322;-72
2023/12/27 01:04:53;;;;;;;5.80;5.40;;;19.50;47.50;;;;;;4964316;28;20350;-72
2023/12/27 01:07:21;;;;;;;6.53;6.00;;;19.50;47.50;;;;;;4979514;28;20609;-72
2023/12/27 01:09:47;;;;;;;7.70;5.53;;;19.50;47.60;;;;;;4969238;28;20461;-72
2023/12/27 01:12:12;;;;;;;6.20;5.60;;;19.50;47.60;;;;;;4979444;28;20984;-72
2023/12/27 01:14:38;;;;;;;5.63;5.13;;;19.50;47.50;;;;;;4993938;28;20274;-71
2023/12/27 01:17:04;;;;;;;5.67;5.20;;;19.50;47.50;;;;;;4999003;28;20225;-72
2023/12/27 01:19:29;;;;;;;7.30;5.40;;;19.50;47.60;;;;;;4991968;28;20243;-72
2023/12/27 01:21:55;;;;;;;5.77;5.40;;;19.50;47.60;;;;;;4971860;28;20700;-72
2023/12/27 01:24:20;;;;;;;5.67;5.17;;;19.50;47.50;;;;;;4970427;28;20250;-72
2023/12/27 01:26:46;;;;;;;6.60;6.10;;;19.50;47.60;;;;;;4994576;28;20306;-72
2023/12/27 01:29:12;;;;;;;5.20;4.80;;;19.50;47.50;;;;;;4988471;28;20223;-71
2023/12/27 01:31:37;;;;;;;6.40;5.23;;;19.50;47.50;;;;;;4970390;28;20219;-71
2023/12/27 01:34:03;;;;;;;6.60;5.87;;;19.50;47.60;;;;;;4967248;28;20274;-72
2023/12/27 01:36:28;;;;;;;5.77;5.37;;;19.50;47.60;;;;;;4977829;28;20232;-72
2023/12/27 01:38:54;;;;;;;5.83;5.30;;;19.50;47.50;;;;;;4978488;28;20653;-72
2023/12/27 01:41:19;;;;;;;5.40;4.90;;;19.50;47.50;;;;;;4990309;28;20231;-70
2023/12/27 01:43:45;;;;;;;6.30;5.70;;;19.50;47.50;;;;;;4962847;28;20232;-70
2023/12/27 01:46:12;;;;;;;5.50;5.00;;;19.50;47.60;;;;;;4996351;28;20222;-70
2023/12/27 01:48:39;;;;;;;5.37;4.73;;;19.50;47.50;;;;;;4994247;28;20459;-69
2023/12/27 01:51:05;;;;;;;5.07;4.70;;;19.50;47.50;;;;;;4993216;28;20538;-70
2023/12/27 01:53:30;;;;;;;5.17;4.77;;;19.50;47.50;;;;;;4989112;28;20928;-69
2023/12/27 01:55:56;;;;;;;4.70;4.40;;;19.50;47.50;;;;;;4979735;28;20636;-69
2023/12/27 01:58:22;;;;;;;5.87;5.33;;;19.50;47.50;;;;;;4973328;28;20442;-69
2023/12/27 02:00:48;;;;;;;5.03;4.63;;;19.50;47.50;;;;;;4980007;28;20663;-70
2023/12/27 02:03:14;;;;;;;5.33;4.93;;;19.50;47.50;;;;;;4989073;28;20668;-69
2023/12/27 02:05:44;;;;;;;5.63;5.23;;;19.50;47.50;;;;;;4962537;28;20439;-70
2023/12/27 02:08:11;;;;;;;4.93;4.63;;;19.50;47.50;;;;;;4994491;28;20238;-71
2023/12/27 02:10:37;;;;;;;4.53;4.23;;;19.50;47.50;;;;;;4990265;28;20462;-70
2023/12/27 02:13:06;;;;;;;4.70;4.40;;;19.50;47.50;;;;;;4984071;28;20431;-70
2023/12/27 02:15:33;;;;;;;5.00;4.60;;;19.50;47.50;;;;;;4982979;28;20435;-70
2023/12/27 02:18:00;;;;;;;4.43;4.13;;;19.50;47.50;;;;;;4976125;28;20482;-70
2023/12/27 02:20:26;;;;;;;5.07;4.60;;;19.50;47.50;;;;;;4975184;28;20450;-70
2023/12/27 02:22:54;;;;;;;5.53;5.13;;;19.50;47.60;;;;;;4978593;28;21101;-70
2023/12/27 02:25:20;;;;;;;4.57;4.17;;;19.50;47.50;;;;;;4970299;28;20448;-71
2023/12/27 02:27:46;;;;;;;4.07;3.77;;;19.50;47.50;;;;;;4991282;28;20452;-69
2023/12/27 02:30:18;;;;;;;4.60;4.30;;;19.50;47.50;;;;;;4970192;28;21007;-71
2023/12/27 02:32:44;;;;;;;4.77;4.40;;;19.50;47.60;;;;;;4988698;28;20251;-70
2023/12/27 02:35:10;;;;;;;4.97;4.60;;;19.50;47.50;;;;;;4977832;28;20473;-71
2023/12/27 02:37:36;;;;;;;4.37;4.07;;;19.50;47.60;;;;;;4979520;28;20431;-73
2023/12/27 02:40:03;;;;;;;5.20;4.70;;;19.50;47.50;;;;;;4980359;28;21003;-70
2023/12/27 02:42:32;;;;;;;4.80;4.50;;;19.50;47.50;;;;;;4975780;28;20258;-69
2023/12/27 02:44:58;;;;;;;4.20;3.90;;;19.50;47.50;;;;;;4993326;28;21147;-69
2023/12/27 02:47:23;;;;;;;3.87;3.60;;;19.50;47.50;;;;;;4978622;28;20467;-71
2023/12/27 02:49:49;;;;;;;4.33;4.03;;;19.50;47.50;;;;;;4984819;28;20235;-70
2023/12/27 02:52:14;;;;;;;4.00;3.70;;;19.50;47.50;;;;;;4988307;28;20224;-70
2023/12/27 02:54:40;;;;;;;5.43;4.83;;;19.50;47.50;;;;;;4991719;28;20235;-72
2023/12/27 02:57:05;;;;;;;4.20;3.90;;;19.50;47.50;;;;;;4994748;28;20235;-70
2023/12/27 02:59:31;;;;;;;4.43;4.03;;;19.50;47.50;;;;;;4990864;28;20318;-70
2023/12/27 03:01:57;;;;;;;4.93;4.50;;;19.50;47.50;;;;;;4993438;28;20278;-70
2023/12/27 03:04:22;;;;;;;5.10;3.70;;;19.50;47.50;;;;;;4992707;28;20258;-70
2023/12/27 03:06:48;;;;;;;4.60;4.10;;;19.50;47.50;;;;;;4995857;28;20263;-70
2023/12/27 03:09:13;;;;;;;4.17;3.87;;;19.50;47.50;;;;;;4987678;28;20546;-73
2023/12/27 03:11:39;;;;;;;3.70;3.47;;;19.50;48.30;;;;;;4964024;28;20224;-71
2023/12/27 03:14:05;;;;;;;3.90;3.70;;;19.50;47.60;;;;;;4967917;28;20707;-71
2023/12/27 03:16:30;;;;;;;3.60;3.40;;;19.50;47.50;;;;;;4983031;28;20709;-70
2023/12/27 03:18:56;;;;;;;4.87;4.57;;;19.50;47.50;;;;;;4982947;28;21365;-69
2023/12/27 03:21:22;;;;;;;4.30;4.00;;;19.50;47.50;;;;;;4986479;28;20227;-69
2023/12/27 03:23:48;;;;;;;4.47;4.13;;;19.50;47.40;;;;;;4988497;28;20968;-70
2023/12/27 03:26:13;;;;;;;3.70;3.50;;;19.50;47.50;;;;;;4992815;28;20227;-71
2023/12/27 03:28:39;;;;;;;4.50;4.03;;;19.50;47.50;;;;;;4992912;28;20318;-70
2023/12/27 03:31:05;;;;;;;4.03;3.73;;;19.50;47.40;;;;;;4995623;28;20228;-69
2023/12/27 03:33:30;;;;;;;4.13;3.47;;;19.50;47.50;;;;;;4995000;28;20227;-69
2023/12/27 03:35:56;;;;;;;3.93;3.73;;;19.50;47.40;;;;;;4985714;28;20323;-69
2023/12/27 03:38:21;;;;;;;3.53;3.30;;;19.50;47.50;;;;;;4992096;28;20219;-69
2023/12/27 03:40:47;;;;;;;3.50;3.20;;;19.50;47.50;;;;;;4990919;28;20247;-69
2023/12/27 03:43:12;;;;;;;3.50;3.30;;;19.50;47.50;;;;;;4988302;28;20224;-69
2023/12/27 03:45:38;;;;;;;4.27;3.87;;;19.50;47.50;;;;;;4987206;28;20622;-68
2023/12/27 03:48:04;;;;;;;3.57;3.37;;;19.50;47.40;;;;;;4992266;28;20290;-70
2023/12/27 03:50:30;;;;;;;3.77;3.37;;;19.50;47.40;;;;;;4982187;28;20679;-70
2023/12/27 03:52:55;;;;;;;3.63;3.33;;;19.50;47.40;;;;;;4986022;28;20223;-70
2023/12/27 03:55:24;;;;;;;4.30;3.77;;;19.40;47.30;;;;;;4990482;28;20219;-70
2023/12/27 03:57:49;;;;;;;3.60;3.30;;;19.50;47.40;;;;;;4976315;28;20683;-74
2023/12/27 04:00:15;;;;;;;3.73;3.53;;;19.50;47.40;;;;;;4978901;28;20470;-71
2023/12/27 04:02:41;;;;;;;3.93;3.50;;;19.40;47.30;;;;;;4991060;28;20229;-69
2023/12/27 04:05:07;;;;;;;3.17;2.97;;;19.50;47.30;;;;;;4993746;28;20467;-69
2023/12/27 04:07:32;;;;;;;3.17;2.97;;;19.50;48.10;;;;;;4991132;28;20227;-72
2023/12/27 04:09:58;;;;;;;3.57;3.30;;;19.50;47.40;;;;;;4990084;28;20382;-70
2023/12/27 04:12:24;;;;;;;3.67;3.40;;;19.50;47.40;;;;;;4988306;28;20220;-68
2023/12/27 04:14:49;;;;;;;3.50;3.30;;;19.50;47.30;;;;;;4992439;28;20636;-69
2023/12/27 04:17:15;;;;;;;2.77;2.57;;;19.50;47.30;;;;;;4985174;28;20318;-70
2023/12/27 04:19:41;;;;;;;3.07;2.87;;;19.40;47.30;;;;;;4995495;28;20285;-71
2023/12/27 04:22:06;;;;;;;3.90;3.60;;;19.50;47.40;;;;;;4994675;28;20624;-68
2023/12/27 04:24:32;;;;;;;3.40;3.20;;;19.50;48.10;;;;;;4988602;28;20223;-71
2023/12/27 04:26:57;;;;;;;3.40;3.20;;;19.50;47.30;;;;;;4985477;28;20692;-68
2023/12/27 04:29:23;;;;;;;3.80;3.20;;;19.50;47.30;;;;;;4981971;28;20322;-68
2023/12/27 04:31:49;;;;;;;3.57;3.27;;;19.50;47.40;;;;;;4989478;28;20692;-71
2023/12/27 04:34:14;;;;;;;3.90;3.60;;;19.50;47.40;;;;;;4987123;28;20231;-68
2023/12/27 04:36:40;;;;;;;3.40;3.20;;;19.40;47.30;;;;;;4978759;28;20298;-69
2023/12/27 04:39:08;;;;;;;3.37;3.10;;;19.50;47.30;;;;;;4990200;28;20239;-69
2023/12/27 04:41:34;;;;;;;4.23;3.30;;;19.40;47.30;;;;;;4989197;28;20751;-69
2023/12/27 04:44:00;;;;;;;3.13;2.93;;;19.50;47.30;;;;;;4983144;28;20439;-67
2023/12/27 04:46:25;;;;;;;3.10;2.90;;;19.50;47.30;;;;;;4990178;28;20367;-68
2023/12/27 04:48:51;;;;;;;3.53;3.20;;;19.50;47.30;;;;;;4992106;28;20231;-71
2023/12/27 04:51:17;;;;;;;3.23;3.03;;;19.50;47.30;;;;;;4992600;28;20235;-68
2023/12/27 04:53:43;;;;;;;3.23;3.03;;;19.50;47.20;;;;;;4974435;28;20234;-70
2023/12/27 04:56:09;;;;;;;3.60;3.30;;;19.50;47.20;;;;;;4975206;28;20248;-68
2023/12/27 04:58:36;;;;;;;3.00;2.80;;;19.50;47.20;;;;;;4974126;28;20536;-69
2023/12/27 05:01:06;;;;;;;3.03;2.83;;;19.50;47.20;;;;;;4993568;28;20231;-68
2023/12/27 05:03:35;;;;;;;2.97;2.77;;;19.50;47.20;;;;;;4974381;28;20448;-71
2023/12/27 05:06:02;;;;;;;3.30;2.93;;;19.50;48.00;;;;;;4976639;28;20832;-68
2023/12/27 05:08:28;;;;;;;3.07;2.77;;;19.50;47.20;;;;;;4992349;28;20494;-74
2023/12/27 05:10:53;;;;;;;2.80;2.60;;;19.50;47.20;;;;;;4970919;28;20855;-74
2023/12/27 05:13:19;;;;;;;2.63;2.50;;;19.50;47.10;;;;;;4986595;28;20620;-74
2023/12/27 05:15:46;;;;;;;3.40;3.20;;;19.50;47.10;;;;;;4988070;28;20697;-74
2023/12/27 05:18:12;;;;;;;2.93;2.70;;;19.50;47.10;;;;;;4976645;28;20223;-74
2023/12/27 05:20:37;;;;;;;2.90;2.70;;;19.50;47.10;;;;;;4987850;28;20442;-74
2023/12/27 05:23:03;;;;;;;3.00;2.80;;;19.50;47.10;;;;;;4962155;28;20704;-75
2023/12/27 05:25:28;;;;;;;3.20;3.00;;;19.50;47.10;;;;;;4988224;28;20232;-74
2023/12/27 05:27:54;;;;;;;2.80;2.60;;;19.50;47.10;;;;;;4993823;28;20306;-75
2023/12/27 05:30:20;;;;;;;2.37;2.27;;;19.50;47.10;;;;;;4987860;28;20216;-75
2023/12/27 05:32:45;;;;;;;3.37;3.10;;;19.50;47.10;;;;;;5009442;28;21357;-75
2023/12/27 05:35:11;;;;;;;3.00;2.80;;;19.50;47.10;;;;;;4991703;28;20231;-72
2023/12/27 05:37:37;;;;;;;2.97;2.77;;;19.50;47.10;;;;;;4991209;28;20230;-75
2023/12/27 05:40:03;;;;;;;2.70;2.50;;;19.50;47.10;;;;;;4986295;28;20208;-75
2023/12/27 05:42:29;;;;;;;3.00;2.80;;;19.50;47.10;;;;;;4993018;28;20606;-74
2023/12/27 05:44:54;;;;;;;2.63;2.43;;;19.50;47.10;;;;;;4976334;28;20559;-74
2023/12/27 05:47:20;;;;;;;2.43;2.23;;;19.50;47.10;;;;;;4979680;28;20679;-72
2023/12/27 05:49:45;;;;;;;2.40;2.20;;;19.50;47.00;;;;;;4993326;28;20570;-74
2023/12/27 05:52:11;;;;;;;3.23;2.80;;;19.60;47.10;;;;;;4991054;28;20273;-75
2023/12/27 05:54:37;;;;;;;2.97;2.53;;;19.50;47.00;;;;;;4992948;28;20303;-72
2023/12/27 05:57:03;;;;;;;2.50;2.30;;;19.50;47.00;;;;;;4987519;28;20262;-75
2023/12/27 05:59:28;;;;;;;2.87;2.40;;;19.50;47.10;;;;;;4990147;28;20232;-75
2023/12/27 06:01:54;;;;;;;2.87;2.67;;;19.50;47.00;;;;;;4978220;28;20496;-75
2023/12/27 06:04:21;;;;;;;2.70;2.50;;;19.60;47.10;;;;;;4995165;28;20303;-72
2023/12/27 06:06:49;;;;;;;2.40;2.30;;;19.50;47.00;;;;;;4982080;28;20306;-74
2023/12/27 06:09:15;;;;;;;3.30;2.70;;;19.50;47.00;;;;;;4976401;28;20481;-75
2023/12/27 06:11:41;;;;;;;3.17;2.97;;;19.60;47.10;;;;;;4979053;28;20552;-72
2023/12/27 06:14:07;;;;;;;3.00;2.80;;;19.50;47.00;;;;;;4970818;28;20461;-75
2023/12/27 06:16:32;;;;;;;3.40;2.90;;;19.60;47.10;;;;;;4977278;28;20232;-72
2023/12/27 06:19:00;;;;;;;2.63;2.43;;;19.60;47.10;;;;;;4983332;28;25036;-75
2023/12/27 06:21:25;;;;;;;2.67;2.47;;;19.50;47.00;;;;;;4990738;28;20219;-75
2023/12/27 06:23:51;;;;;;;2.20;2.07;;;19.60;47.10;;;;;;4989714;28;20981;-73
2023/12/27 06:26:16;;;;;;;2.67;2.47;;;19.60;47.00;;;;;;4968256;28;20227;-75
2023/12/27 06:28:43;;;;;;;3.10;2.80;;;19.50;46.90;;;;;;4988873;28;20239;-69
2023/12/27 06:31:09;;;;;;;2.23;1.93;;;19.60;47.00;;;;;;4990711;28;20218;-72
2023/12/27 06:33:35;;;;;;;2.80;2.60;;;19.50;46.90;;;;;;4985924;28;20466;-69
2023/12/27 06:36:01;;;;;;;6.13;2.70;;;19.50;46.90;;;;;;4972972;28;20322;-70
2023/12/27 06:38:28;;;;;;;2.17;2.07;;;19.60;47.00;;;;;;4988706;28;20219;-69
2023/12/27 06:40:54;;;;;;;3.07;2.87;;;19.60;47.00;;;;;;4993336;28;20473;-70
2023/12/27 06:43:20;;;;;;;2.20;2.10;;;19.60;47.00;;;;;;4973282;28;20492;-72
2023/12/27 06:45:45;;;;;;;2.50;2.30;;;19.60;47.00;;;;;;4981059;28;20536;-69
2023/12/27 06:48:11;;;;;;;2.03;1.93;;;19.60;47.00;;;;;;4986026;28;20709;-70
2023/12/27 06:50:37;;;;;;;2.00;1.90;;;19.60;47.00;;;;;;4985999;28;20211;-69
2023/12/27 06:53:03;;;;;;;2.40;2.30;;;19.60;47.00;;;;;;4972402;28;20219;-69
2023/12/27 06:55:28;;;;;;;2.17;2.07;;;19.60;47.00;;;;;;4992189;28;20421;-70
2023/12/27 06:57:54;;;;;;;2.70;2.23;;;19.60;47.00;;;;;;4997172;28;20247;-70
2023/12/27 07:00:20;;;;;;;2.63;2.43;;;19.60;47.00;;;;;;4990717;28;20223;-71
2023/12/27 07:02:45;;;;;;;2.10;2.00;;;19.60;47.00;;;;;;4994991;28;20216;-69
2023/12/27 07:05:12;;;;;;;2.20;2.07;;;19.60;47.00;;;;;;4993893;28;20231;-72
2023/12/27 07:07:37;;;;;;;2.43;2.33;;;19.60;46.90;;;;;;4984966;28;20231;-69
2023/12/27 07:10:04;;;;;;;2.33;2.23;;;19.60;46.90;;;;;;4976484;28;20458;-68
2023/12/27 07:12:30;;;;;;;3.00;2.30;;;19.60;47.00;;;;;;4984470;28;22958;-70
2023/12/27 07:14:56;;;;;;;2.27;2.13;;;19.60;46.90;;;;;;4985948;28;20533;-71
2023/12/27 07:17:23;;;;;;;2.33;2.20;;;19.60;46.90;;;;;;4992997;28;20556;-69
2023/12/27 07:19:49;;;;;;;2.60;2.40;;;19.60;47.00;;;;;;4983244;28;20447;-70
2023/12/27 07:22:14;;;;;;;2.10;2.00;;;19.60;46.90;;;;;;4981116;28;20832;-71
2023/12/27 07:24:40;;;;;;;2.20;2.10;;;19.60;47.00;;;;;;4989064;28;20667;-71
2023/12/27 07:27:05;;;;;;;2.37;2.17;;;19.60;47.70;;;;;;4987131;28;20610;-69
2023/12/27 07:29:33;;;;;;;2.17;2.00;;;19.60;46.90;;;;;;4992174;28;20567;-70
2023/12/27 07:31:58;;;;;;;2.47;2.37;;;19.60;46.90;;;;;;4987380;28;20755;-69
2023/12/27 07:34:24;;;;;;;2.33;2.23;;;19.60;46.90;;;;;;4992973;28;20450;-69
2023/12/27 07:36:49;;;;;;;2.17;2.07;;;19.60;46.90;;;;;;4995914;28;20219;-69
2023/12/27 07:39:15;;;;;;;2.63;2.43;;;19.60;46.90;;;;;;4982389;28;20219;-75
2023/12/27 07:41:42;;;;;;;2.17;2.00;;;19.60;46.90;;;;;;4995584;28;20216;-75
2023/12/27 07:44:08;;;;;;;2.13;2.03;;;19.60;46.90;;;;;;4991567;28;20456;-74
2023/12/27 07:46:34;;;;;;;2.27;2.07;;;19.60;46.90;;;;;;4992736;28;20436;-74
2023/12/27 07:49:01;;;;;;;2.00;1.90;;;19.60;46.90;;;;;;4994735;28;20232;-71
2023/12/27 07:51:26;;;;;;;2.20;2.07;;;19.60;46.90;;;;;;4983254;28;20486;-73
2023/12/27 07:53:52;;;;;;;2.30;2.17;;;19.60;46.90;;;;;;4980974;28;20886;-73
2023/12/27 07:56:18;;;;;;;2.23;2.03;;;19.60;46.90;;;;;;4991356;28;20266;-76
2023/12/27 07:58:45;;;;;;;2.37;2.27;;;19.60;46.80;;;;;;4985732;28;20814;-76
2023/12/27 08:01:11;;;;;;;2.37;2.27;;;19.60;46.90;;;;;;4992338;28;20520;-76
2023/12/27 08:03:37;;;;;;;2.20;2.10;;;19.60;46.80;;;;;;4979292;28;20427;-79
2023/12/27 08:06:02;;;;;;;1.90;1.80;;;19.60;46.90;;;;;;4987444;28;20223;-79
2023/12/27 08:08:28;;;;;;;2.10;2.00;;;19.60;46.80;;;;;;4995478;28;20543;-79
2023/12/27 08:10:53;;;;;;;1.90;1.80;;;19.60;46.80;;;;;;4988899;28;20235;-76
2023/12/27 08:13:19;;;;;;;2.57;2.37;;;19.60;46.80;;;;;;4991347;28;20216;-76
2023/12/27 08:15:44;;;;;;;1.90;1.80;;;19.60;46.70;;;;;;4988014;28;20224;-74
2023/12/27 08:18:10;;;;;;;2.17;2.07;;;19.70;46.70;;;;;;4996371;28;20307;-77
2023/12/27 08:20:36;;;;;;;2.00;1.90;;;19.60;46.70;;;;;;4987665;28;20219;-78
2023/12/27 08:23:01;;;;;;;2.17;2.07;;;19.70;46.70;;;;;;4995334;28;20679;-77
2023/12/27 08:25:27;;;;;;;2.80;2.60;;;19.60;46.70;;;;;;4990442;28;20207;-76
2023/12/27 08:27:53;;;;;;;2.13;2.03;;;19.70;46.70;;;;;;4990865;28;20212;-75
2023/12/27 08:30:18;;;;;;;2.10;2.00;;;19.70;46.70;;;;;;4963730;28;20594;-78
2023/12/27 08:32:44;;;;;;;1.80;1.70;;;19.60;46.70;;;;;;4987220;28;20251;-74
2023/12/27 08:35:10;;;;;;;2.23;2.10;;;19.60;46.70;;;;;;4979997;28;20231;-74
2023/12/27 08:37:35;;;;;;;2.00;1.90;;;19.70;46.70;;;;;;4996292;28;20247;-74
2023/12/27 08:40:01;;;;;;;4.03;2.03;;;19.60;47.50;;;;;;4987684;28;20220;-75
2023/12/27 08:42:26;;;;;;;1.67;1.57;;;19.70;46.80;;;;;;4989369;28;20334;-75
2023/12/27 08:44:52;;;;;;;3.10;2.00;;;19.60;46.70;;;;;;4988299;28;20259;-74
2023/12/27 08:47:18;;;;;;;2.47;1.90;;;19.70;46.80;;;;;;4993073;28;20231;-75
2023/12/27 08:49:43;;;;;;;2.20;2.00;;;19.60;46.60;;;;;;4991309;28;20231;-70
2023/12/27 08:52:09;;;;;;;1.87;1.77;;;19.60;46.70;;;;;;4977171;28;20255;-72
2023/12/27 08:54:34;;;;;;;1.80;1.70;;;19.60;46.70;;;;;;4981564;28;20632;-70
2023/12/27 08:57:00;;;;;;;3.00;1.67;;;19.70;46.70;;;;;;5001337;28;20223;-72
2023/12/27 08:59:25;;;;;;;2.00;1.90;;;19.60;46.70;;;;;;4999431;28;20200;-72
2023/12/27 09:01:51;;;;;;;1.90;1.80;;;19.70;46.70;;;;;;4997496;28;20224;-72
2023/12/27 09:04:19;;;;;;;2.17;2.03;;;19.60;46.80;;;;;;4990360;28;20245;-72
2023/12/27 09:06:45;;;;;;;2.00;1.80;;;19.70;46.80;;;;;;4998370;28;20601;-72
2023/12/27 09:09:11;;;;;;;2.00;1.90;;;19.60;46.80;;;;;;4995705;28;20472;-69
2023/12/27 09:11:37;;;;;;;1.87;1.60;;;19.60;46.80;;;;;;4996223;28;20236;-67
2023/12/27 09:14:02;;;;;;;1.90;1.80;;;19.60;46.70;;;;;;5000870;28;20463;-69
2023/12/27 09:16:28;;;;;;;1.70;1.60;;;19.60;46.80;;;;;;4999531;28;20246;-69
2023/12/27 09:18:53;;;;;;;1.73;1.63;;;19.60;46.80;;;;;;4988352;28;20384;-68
2023/12/27 09:21:19;;;;;;;1.77;1.67;;;19.60;46.80;;;;;;4995549;28;20250;-70
2023/12/27 09:23:45;;;;;;;2.30;1.70;;;19.60;46.80;;;;;;4995680;28;20223;-73
2023/12/27 09:26:13;;;;;;;1.60;1.50;;;19.60;46.80;;;;;;4996203;28;20230;-69
2023/12/27 09:28:39;;;;;;;1.70;1.60;;;19.60;46.90;;;;;;4992117;28;20231;-72
2023/12/27 09:31:04;;;;;;;1.80;1.70;;;19.60;46.80;;;;;;4993172;28;20502;-69
2023/12/27 09:33:30;;;;;;;1.87;1.77;;;19.60;46.90;;;;;;4999517;28;20223;-69
2023/12/27 09:35:55;;;;;;;1.80;1.70;;;19.60;47.70;;;;;;4994695;28;20228;-68
2023/12/27 09:38:21;;;;;;;1.90;1.80;;;19.60;46.90;;;;;;4988187;28;20299;-68
2023/12/27 09:40:47;;;;;;;1.60;1.50;;;19.60;46.90;;;;;;4994908;28;20216;-68
2023/12/27 09:43:15;;;;;;;1.50;1.40;;;19.60;46.90;;;;;;4996892;28;20554;-69
2023/12/27 09:45:41;;;;;;;1.73;1.63;;;19.60;46.90;;;;;;5000068;28;20979;-67
2023/12/27 09:48:12;;;;;;;1.80;1.70;;;19.60;46.90;;;;;;4989337;28;20442;-69
2023/12/27 09:50:40;;;;;;;1.63;1.53;;;19.60;46.90;;;;;;4997828;28;20449;-68
2023/12/27 09:53:07;;;;;;;1.70;1.60;;;19.60;47.00;;;;;;4990001;28;20858;-70
2023/12/27 09:55:33;;;;;;;1.60;1.50;;;19.60;46.90;;;;;;4995725;28;22060;-69
2023/12/27 09:57:58;;;;;;;1.50;1.40;;;19.60;46.90;;;;;;4993513;28;20427;-67
2023/12/27 10:00:28;;;;;;;1.97;1.87;;;19.60;46.90;;;;;;4979770;28;20226;-69
2023/12/27 10:02:58;;;;;;;1.67;1.57;;;19.60;47.00;;;;;;4982335;28;20283;-69
2023/12/27 10:05:29;;;;;;;1.57;1.43;;;19.60;47.00;;;;;;4986105;28;20445;-68
2023/12/27 10:07:56;;;;;;;1.90;1.80;;;19.60;46.90;;;;;;4997387;28;21008;-71
2023/12/27 10:10:22;;;;;;;1.60;1.50;;;19.60;47.00;;;;;;4981669;28;20468;-70
2023/12/27 10:12:49;;;;;;;2.00;1.90;;;19.60;47.00;;;;;;4990497;28;20500;-69
2023/12/27 10:15:15;;;;;;;1.87;1.77;;;19.60;46.90;;;;;;4994949;28;20230;-69
2023/12/27 10:17:41;;;;;;;1.80;1.70;;;19.60;47.00;;;;;;4987190;28;20854;-69
2023/12/27 10:20:08;;;;;;;1.83;1.73;;;19.60;47.00;;;;;;4978300;28;20480;-70
2023/12/27 10:22:34;;;;;;;1.50;1.40;;;19.60;47.00;;;;;;4994246;28;20473;-69
2023/12/27 10:25:00;;;;;;;2.50;1.70;;;19.50;46.90;;;;;;4992329;28;21054;-69
2023/12/27 10:27:29;;;;;;;2.50;1.70;;;19.60;47.00;;;;;;4991487;28;20238;-69
2023/12/27 10:29:56;;;;;;;2.17;1.97;;;19.60;47.00;;;;;;4972969;28;20460;-72
2023/12/27 10:32:21;;;;;;;1.77;1.60;;;19.60;47.00;;;;;;4989699;28;20455;-69
2023/12/27 10:34:47;;;;;;;2.80;1.60;;;19.60;47.00;;;;;;4989954;28;20491;-68
2023/12/27 10:37:13;;;;;;;1.63;1.53;;;19.60;47.00;;;;;;4984971;28;20219;-70
2023/12/27 10:39:46;;;;;;;1.70;1.60;;;19.60;47.00;;;;;;4985565;28;20863;-68
2023/12/27 10:42:13;;;;;;;2.07;1.50;;;19.60;47.00;;;;;;4973230;28;20714;-69
2023/12/27 10:44:39;;;;;;;1.80;1.70;;;19.60;47.10;;;;;;4986444;28;20477;-70
2023/12/27 10:47:09;;;;;;;1.50;1.40;;;19.60;47.00;;;;;;4984984;28;20461;-68
2023/12/27 10:49:36;;;;;;;1.80;1.50;;;19.60;47.00;;;;;;4998383;28;20362;-69
2023/12/27 10:52:03;;;;;;;1.70;1.60;;;19.60;47.80;;;;;;4989729;28;20546;-68
2023/12/27 10:54:28;;;;;;;1.40;1.30;;;19.50;46.90;;;;;;4983046;28;20846;-70
2023/12/27 10:56:59;;;;;;;2.43;2.33;;;19.60;47.00;;;;;;4981432;28;20502;-69
2023/12/27 10:59:25;;;;;;;1.40;1.30;;;19.60;47.00;;;;;;4977549;28;20302;-71
2023/12/27 11:01:51;;;;;;;1.50;1.40;;;19.60;47.10;;;;;;4991509;28;20468;-70
2023/12/27 11:04:18;;;;;;;1.40;1.30;;;19.60;47.10;;;;;;4988115;28;21005;-70
2023/12/27 11:06:47;;;;;;;1.90;1.80;;;19.60;47.10;;;;;;4959743;28;20591;-69
2023/12/27 11:09:14;;;;;;;2.73;1.70;;;19.60;47.10;;;;;;4985260;28;20484;-70
2023/12/27 11:11:40;;;;;;;2.07;1.70;;;19.60;47.10;;;;;;4989081;28;20757;-69
2023/12/27 11:14:08;;;;;;;3.90;1.70;;;19.50;46.90;;;;;;4989108;28;21860;-71
2023/12/27 11:16:35;;;;;;;1.73;1.50;;;19.60;46.90;;;;;;4968559;28;20494;-72
2023/12/27 11:19:06;;;;;;;1.50;1.40;;;19.60;46.90;;;;;;4978996;28;20571;-69
2023/12/27 11:21:34;;;;;;;1.57;1.47;;;19.60;47.00;;;;;;4982341;28;20431;-71
2023/12/27 11:24:03;;;;;;;2.70;1.40;;;19.60;46.90;;;;;;4992991;28;21678;-69
2023/12/27 11:26:33;;;;;;;2.27;1.50;;;19.60;47.00;;;;;;4974060;28;20823;-69
2023/12/27 11:29:00;;;;;;;1.40;1.30;;;19.60;47.00;;;;;;4984035;28;20522;-73
2023/12/27 11:31:25;;;;;;;1.40;1.30;;;19.60;47.00;;;;;;4969693;28;20829;-71
2023/12/27 11:33:52;;;;;;;1.67;1.57;;;19.60;47.00;;;;;;4984929;28;20433;-68
2023/12/27 11:36:19;;;;;;;2.00;1.43;;;19.60;47.00;;;;;;4989937;28;20226;-73
2023/12/27 11:38:46;;;;;;;1.30;1.20;;;19.60;47.00;;;;;;4996710;28;20468;-70
2023/12/27 11:41:12;;;;;;;1.70;1.60;;;19.60;47.00;;;;;;4993219;28;20463;-70
2023/12/27 11:43:56;;;;;;;2.20;1.30;;;19.60;47.00;;;;;;4990100;28;20465;-69
2023/12/27 11:46:30;;;;;;;1.40;1.30;;;19.60;46.90;;;;;;4987687;28;20234;-72
2023/12/27 11:48:59;;;;;;;1.53;1.43;;;19.60;46.90;;;;;;4996816;28;20990;-68
2023/12/27 11:51:29;;;;;;;1.20;1.10;;;19.60;46.90;;;;;;4992538;28;21277;-68
2023/12/27 11:53:56;;;;;;;1.60;1.50;;;19.60;46.90;;;;;;4979975;28;20595;-71
2023/12/27 11:56:22;;;;;;;1.50;1.40;;;19.60;46.90;;;;;;4998787;28;21094;-71
2023/12/27 11:58:49;;;;;;;1.40;1.20;;;19.60;46.90;;;;;;4984418;28;20450;-73
2023/12/27 12:01:35;;;;;;;1.30;1.20;;;19.60;46.90;;;;;;4968171;28;20490;-72
2023/12/27 12:04:38;;;;;;;2.47;2.00;;;19.60;46.90;;;;;;4996800;28;20793;-72
2023/12/27 12:07:35;;;;;;;1.77;1.43;;;19.60;46.90;;;;;;4996170;28;20434;-74
2023/12/27 12:10:00;;;;;;;1.77;1.43;;;19.60;46.90;;;;;;4982238;28;21100;-76
2023/12/27 12:12:27;;;;;;;1.43;1.30;;;19.60;46.90;;;;;;4981829;28;20461;-81
2023/12/27 12:14:55;;;;;;;3.37;1.30;;;19.60;47.00;;;;;;4988501;28;20227;-78
2023/12/27 12:17:22;;;;;;;1.30;1.20;;;19.60;46.90;;;;;;4994673;28;20520;-81
2023/12/27 12:19:49;;;;;;;2.60;1.40;;;19.60;46.90;;;;;;4976813;28;20560;-81
2023/12/27 12:22:15;;;;;;;1.30;1.20;;;19.60;46.90;;;;;;4985411;28;20441;-77
2023/12/27 12:24:41;;;;;;;1.30;1.20;;;19.60;46.90;;;;;;4997928;28;20455;-81
2023/12/27 12:27:07;;;;;;;1.67;1.00;;;19.60;47.00;;;;;;4994638;28;20825;-77
2023/12/27 12:29:33;;;;;;;1.30;1.20;;;19.60;46.90;;;;;;4994849;28;20634;-74
2023/12/27 12:31:59;;;;;;;1.50;1.40;;;19.60;47.00;;;;;;4987354;28;20455;-74
2023/12/27 12:34:25;;;;;;;1.40;1.30;;;19.60;46.90;;;;;;4991899;28;20251;-72
2023/12/27 12:36:52;;;;;;;1.50;1.40;;;19.60;46.90;;;;;;4977502;28;20290;-72
2023/12/27 12:39:21;;;;;;;1.40;1.30;;;19.60;47.00;;;;;;4988922;28;20462;-73
2023/12/27 12:41:47;;;;;;;1.40;1.30;;;19.60;46.90;;;;;;4983447;28;20443;-73
2023/12/27 12:44:14;;;;;;;1.20;1.10;;;19.60;46.90;;;;;;4988502;28;20483;-73